createdAt,value
2022-07-29T00:00:34.102Z,17
2022-07-29T00:02:49.638Z,18
2022-07-29T00:04:17.320Z,18
2022-07-29T00:05:44.123Z,18
2022-07-29T00:06:49.526Z,18
2022-07-29T00:07:52.373Z,17
2022-07-29T00:09:02.106Z,17
2022-07-29T00:10:07.035Z,17
2022-07-29T00:12:38.685Z,17
2022-07-29T00:13:46.467Z,17
2022-07-29T00:15:30.884Z,17
2022-07-29T00:16:51.079Z,18
2022-07-29T00:17:58.917Z,18
2022-07-29T00:19:03.220Z,18
2022-07-29T00:20:04.848Z,18
2022-07-29T00:21:07.467Z,18
2022-07-29T00:22:08.864Z,18
2022-07-29T00:23:13.518Z,18
2022-07-29T00:24:22.803Z,18
2022-07-29T00:25:23.844Z,18
2022-07-29T00:26:25.213Z,18
2022-07-29T00:27:26.724Z,17
2022-07-29T00:28:31.303Z,16
2022-07-29T00:29:34.310Z,17
2022-07-29T00:30:36.447Z,17
2022-07-29T00:31:38.753Z,18
2022-07-29T00:32:40.274Z,18
2022-07-29T00:33:42.154Z,19
2022-07-29T00:34:43.144Z,18
2022-07-29T00:35:45.481Z,18
2022-07-29T00:36:51.069Z,18
2022-07-29T00:37:55.963Z,18
2022-07-29T00:38:57.228Z,18
2022-07-29T00:39:59.100Z,19
2022-07-29T00:41:00.635Z,18
2022-07-29T00:42:02.768Z,18
2022-07-29T00:43:04.043Z,18
2022-07-29T00:44:05.376Z,18
2022-07-29T00:45:06.884Z,19
2022-07-29T00:46:18.364Z,19
2022-07-29T00:47:33.184Z,19
2022-07-29T00:48:38.719Z,19
2022-07-29T00:49:44.336Z,19
2022-07-29T00:54:06.853Z,19
2022-07-29T00:55:08.962Z,19
2022-07-29T00:56:32.742Z,19
2022-07-29T00:57:35.135Z,18
2022-07-29T00:58:36.920Z,18
2022-07-29T00:59:38.192Z,18
2022-07-29T01:00:42.415Z,18
2022-07-29T01:01:46.977Z,18
2022-07-29T01:02:48.480Z,18
2022-07-29T01:03:50.819Z,17
2022-07-29T01:05:08.466Z,17
2022-07-29T01:06:10.816Z,17
2022-07-29T01:07:19.953Z,16
2022-07-29T01:08:21.355Z,17
2022-07-29T01:09:34.399Z,17
2022-07-29T01:10:50.616Z,17
2022-07-29T01:12:00.204Z,18
2022-07-29T01:13:01.984Z,18
2022-07-29T01:14:15.098Z,18
2022-07-29T01:15:20.911Z,18
2022-07-29T01:16:22.559Z,18
2022-07-29T01:17:27.251Z,19
2022-07-29T01:19:03.590Z,19
2022-07-29T01:20:05.671Z,19
2022-07-29T01:21:07.580Z,19
2022-07-29T01:22:09.148Z,19
2022-07-29T01:23:10.906Z,19
2022-07-29T01:24:15.862Z,18
2022-07-29T01:25:25.372Z,18
2022-07-29T01:26:30.586Z,18
2022-07-29T01:27:39.240Z,18
2022-07-29T01:28:47.879Z,19
2022-07-29T01:29:51.324Z,18
2022-07-29T01:30:55.839Z,18
2022-07-29T01:32:18.145Z,18
2022-07-29T01:33:38.764Z,17
2022-07-29T01:35:55.451Z,18
2022-07-29T01:37:05.840Z,18
2022-07-29T01:38:28.764Z,19
2022-07-29T01:39:36.032Z,19
2022-07-29T01:40:55.379Z,18
2022-07-29T01:42:19.101Z,18
2022-07-29T01:43:27.509Z,18
2022-07-29T02:23:09.371Z,18
2022-07-29T02:24:11.486Z,19
2022-07-29T02:25:13.967Z,19
2022-07-29T02:26:17.652Z,19
2022-07-29T02:27:19.795Z,19
2022-07-29T02:28:22.249Z,18
2022-07-29T02:29:24.892Z,18
2022-07-29T02:30:26.723Z,19
2022-07-29T02:31:27.781Z,18
2022-07-29T02:32:30.389Z,18
2022-07-29T02:33:31.896Z,19
2022-07-29T02:34:34.430Z,19
2022-07-29T02:35:35.936Z,20
2022-07-29T02:36:38.044Z,20
2022-07-29T02:37:39.085Z,19
2022-07-29T02:38:40.629Z,18
2022-07-29T02:39:42.981Z,18
2022-07-29T02:40:44.534Z,19
2022-07-29T02:41:45.795Z,19
2022-07-29T02:42:48.184Z,19
2022-07-29T02:43:49.418Z,19
2022-07-29T02:44:50.987Z,19
2022-07-29T02:45:52.805Z,19
2022-07-29T02:46:55.245Z,19
2022-07-29T02:47:58.084Z,19
2022-07-29T02:49:00.259Z,18
2022-07-29T02:50:02.559Z,18
2022-07-29T02:51:04.625Z,18
2022-07-29T02:52:06.696Z,18
2022-07-29T02:53:08.245Z,19
2022-07-29T02:54:10.026Z,19
2022-07-29T02:55:11.867Z,19
2022-07-29T02:56:12.852Z,19
2022-07-29T02:57:13.868Z,19
2022-07-29T02:58:15.651Z,19
2022-07-29T02:59:16.962Z,19
2022-07-29T03:00:18.516Z,19
2022-07-29T03:01:21.817Z,19
2022-07-29T03:02:24.130Z,19
2022-07-29T03:03:26.204Z,19
2022-07-29T03:04:27.505Z,19
2022-07-29T03:05:28.719Z,18
2022-07-29T03:06:37.484Z,18
2022-07-29T03:07:40.265Z,18
2022-07-29T03:08:41.526Z,18
2022-07-29T03:09:42.530Z,19
2022-07-29T03:10:44.603Z,18
2022-07-29T03:11:50.288Z,18
2022-07-29T03:12:52.281Z,18
2022-07-29T03:13:53.551Z,18
2022-07-29T03:14:55.611Z,18
2022-07-29T03:15:57.779Z,18
2022-07-29T03:16:59.730Z,17
2022-07-29T03:18:01.287Z,17
2022-07-29T03:19:02.507Z,18
2022-07-29T03:20:03.487Z,18
2022-07-29T03:21:05.275Z,19
2022-07-29T03:22:07.409Z,20
2022-07-29T03:23:09.015Z,20
2022-07-29T03:24:10.906Z,20
2022-07-29T03:25:15.235Z,19
2022-07-29T03:26:17.087Z,18
2022-07-29T03:27:19.149Z,17
2022-07-29T03:28:21.209Z,18
2022-07-29T03:29:33.324Z,18
2022-07-29T03:30:36.055Z,19
2022-07-29T03:31:45.981Z,19
2022-07-29T03:32:49.813Z,19
2022-07-29T03:33:58.960Z,19
2022-07-29T03:34:59.953Z,18
2022-07-29T03:36:01.231Z,19
2022-07-29T03:37:02.720Z,19
2022-07-29T03:38:03.942Z,19
2022-07-29T03:39:06.062Z,19
2022-07-29T03:40:07.887Z,19
2022-07-29T03:41:10.026Z,18
2022-07-29T03:42:11.846Z,18
2022-07-29T03:43:13.911Z,18
2022-07-29T03:44:16.701Z,19
2022-07-29T03:45:19.952Z,19
2022-07-29T03:46:21.300Z,19
2022-07-29T03:47:23.238Z,19
2022-07-29T03:49:01.789Z,19
2022-07-29T03:50:03.620Z,20
2022-07-29T03:51:04.891Z,20
2022-07-29T03:52:08.310Z,20
2022-07-29T03:53:10.651Z,19
2022-07-29T03:54:13.752Z,18
2022-07-29T03:55:16.575Z,19
2022-07-29T03:56:18.374Z,19
2022-07-29T03:57:20.441Z,20
2022-07-29T03:58:24.058Z,19
2022-07-29T03:59:25.564Z,18
2022-07-29T04:00:27.382Z,17
2022-07-29T04:01:28.777Z,17
2022-07-29T04:02:30.931Z,17
2022-07-29T04:03:32.462Z,18
2022-07-29T04:04:34.782Z,19
2022-07-29T04:05:36.651Z,19
2022-07-29T04:06:37.967Z,19
2022-07-29T04:07:39.235Z,19
2022-07-29T04:08:40.219Z,19
2022-07-29T04:09:41.454Z,19
2022-07-29T04:10:42.463Z,18
2022-07-29T04:11:57.161Z,18
2022-07-29T04:13:05.385Z,18
2022-07-29T04:14:06.648Z,19
2022-07-29T04:15:08.192Z,19
2022-07-29T04:16:09.270Z,20
2022-07-29T04:17:10.948Z,19
2022-07-29T04:18:13.291Z,18
2022-07-29T04:19:15.399Z,18
2022-07-29T04:20:16.982Z,18
2022-07-29T04:21:18.493Z,19
2022-07-29T04:22:20.331Z,19
2022-07-29T04:23:27.752Z,19
2022-07-29T04:24:29.253Z,19
2022-07-29T04:25:30.242Z,20
2022-07-29T04:26:31.229Z,20
2022-07-29T04:27:32.232Z,20
2022-07-29T04:28:33.228Z,19
2022-07-29T04:29:34.219Z,19
2022-07-29T04:30:35.761Z,19
2022-07-29T04:31:37.430Z,18
2022-07-29T04:32:39.507Z,19
2022-07-29T04:33:41.339Z,19
2022-07-29T04:34:42.326Z,19
2022-07-29T04:35:47.090Z,19
2022-07-29T04:36:57.316Z,19
2022-07-29T04:37:59.588Z,19
2022-07-29T04:39:01.169Z,18
2022-07-29T04:40:03.389Z,18
2022-07-29T04:41:05.446Z,18
2022-07-29T04:42:11.265Z,18
2022-07-29T04:43:14.214Z,19
2022-07-29T04:44:26.517Z,18
2022-07-29T04:45:37.260Z,19
2022-07-29T04:46:38.581Z,20
2022-07-29T04:47:40.488Z,20
2022-07-29T04:48:42.061Z,21
2022-07-29T04:49:43.777Z,21
2022-07-29T04:50:45.028Z,21
2022-07-29T04:51:46.290Z,21
2022-07-29T04:52:47.567Z,20
2022-07-29T04:53:48.855Z,20
2022-07-29T04:54:50.140Z,21
2022-07-29T04:55:51.143Z,21
2022-07-29T04:56:52.406Z,23
2022-07-29T04:57:53.707Z,23
2022-07-29T04:58:54.987Z,23
2022-07-29T04:59:56.537Z,23
2022-07-29T05:00:57.803Z,21
2022-07-29T05:01:59.114Z,21
2022-07-29T05:03:01.019Z,20
2022-07-29T05:04:03.210Z,21
2022-07-29T05:05:06.850Z,21
2022-07-29T05:06:07.840Z,21
2022-07-29T05:07:09.077Z,21
2022-07-29T05:08:10.118Z,20
2022-07-29T05:09:11.394Z,20
2022-07-29T05:10:12.672Z,19
2022-07-29T05:11:17.009Z,19
2022-07-29T05:12:31.689Z,18
2022-07-29T05:13:44.988Z,18
2022-07-29T05:14:48.024Z,18
2022-07-29T05:15:49.619Z,18
2022-07-29T05:16:52.350Z,19
2022-07-29T05:17:54.690Z,19
2022-07-29T05:18:55.974Z,19
2022-07-29T05:19:57.238Z,19
2022-07-29T05:20:58.791Z,18
2022-07-29T05:22:00.616Z,18
2022-07-29T05:23:01.899Z,18
2022-07-29T05:24:02.910Z,18
2022-07-29T05:25:08.683Z,19
2022-07-29T05:26:10.252Z,19
2022-07-29T05:27:12.118Z,20
2022-07-29T05:28:13.437Z,19
2022-07-29T05:29:41.283Z,19
2022-07-29T05:30:47.378Z,18
2022-07-29T05:31:50.287Z,18
2022-07-29T05:32:55.780Z,18
2022-07-29T05:33:57.608Z,18
2022-07-29T05:34:59.685Z,19
2022-07-29T05:36:01.111Z,19
2022-07-29T05:37:02.484Z,19
2022-07-29T05:38:03.993Z,19
2022-07-29T05:39:07.646Z,17
2022-07-29T05:40:09.460Z,18
2022-07-29T05:41:11.114Z,17
2022-07-29T05:42:15.858Z,17
2022-07-29T05:43:17.832Z,17
2022-07-29T05:44:19.585Z,17
2022-07-29T05:45:27.041Z,17
2022-07-29T05:46:28.303Z,17
2022-07-29T05:47:31.948Z,17
2022-07-29T05:48:32.980Z,17
2022-07-29T05:49:34.579Z,17
2022-07-29T05:50:36.143Z,17
2022-07-29T05:51:45.886Z,17
2022-07-29T05:52:47.178Z,17
2022-07-29T05:53:51.122Z,17
2022-07-29T05:54:52.680Z,17
2022-07-29T05:55:53.940Z,17
2022-07-29T05:56:55.173Z,17
2022-07-29T05:57:56.164Z,16
2022-07-29T05:58:57.212Z,16
2022-07-29T05:59:58.736Z,16
2022-07-29T06:01:00.363Z,16
2022-07-29T06:02:02.544Z,15
2022-07-29T06:03:03.527Z,14
2022-07-29T06:04:05.171Z,13
2022-07-29T06:05:07.018Z,13
2022-07-29T06:06:18.978Z,12
2022-07-29T06:07:20.800Z,12
2022-07-29T06:08:22.355Z,13
2022-07-29T06:09:24.441Z,13
2022-07-29T06:10:26.287Z,13
2022-07-29T06:11:28.663Z,14
2022-07-29T06:12:29.643Z,14
2022-07-29T06:13:31.154Z,14
2022-07-29T06:14:32.722Z,14
2022-07-29T06:15:34.038Z,13
2022-07-29T06:16:36.202Z,12
2022-07-29T06:17:38.525Z,12
2022-07-29T06:19:04.419Z,13
2022-07-29T06:20:07.524Z,14
2022-07-29T06:21:13.201Z,15
2022-07-29T06:22:14.741Z,14
2022-07-29T06:23:16.802Z,13
2022-07-29T06:24:18.526Z,13
2022-07-29T06:25:21.766Z,13
2022-07-29T06:26:26.379Z,12
2022-07-29T06:27:40.648Z,12
2022-07-29T06:28:41.962Z,12
2022-07-29T06:29:43.227Z,12
2022-07-29T06:30:44.820Z,12
2022-07-29T06:31:46.361Z,12
2022-07-29T06:32:47.913Z,11
2022-07-29T06:33:48.976Z,11
2022-07-29T06:34:50.478Z,11
2022-07-29T06:36:25.071Z,11
2022-07-29T06:37:29.077Z,11
2022-07-29T06:38:42.964Z,12
2022-07-29T06:39:59.550Z,13
2022-07-29T06:41:00.641Z,13
2022-07-29T06:42:02.273Z,13
2022-07-29T06:43:03.500Z,12
2022-07-29T06:44:08.844Z,13
2022-07-29T06:45:09.885Z,14
2022-07-29T06:46:11.489Z,14
2022-07-29T06:47:14.161Z,15
2022-07-29T06:48:15.450Z,14
2022-07-29T06:50:32.731Z,13
2022-07-29T06:51:38.214Z,12
2022-07-29T06:52:46.103Z,12
2022-07-29T06:53:58.605Z,12
2022-07-29T06:55:24.619Z,13
2022-07-29T06:56:30.658Z,14
2022-07-29T06:57:42.423Z,14
2022-07-29T06:58:44.140Z,14
2022-07-29T06:59:56.619Z,15
2022-07-29T07:03:47.516Z,15
2022-07-29T07:04:52.373Z,16
2022-07-29T07:05:56.002Z,15
2022-07-29T07:07:03.999Z,16
2022-07-29T07:08:12.924Z,17
2022-07-29T07:09:15.840Z,17
2022-07-29T07:10:43.149Z,17
2022-07-29T07:11:45.436Z,18
2022-07-29T07:12:57.450Z,20
2022-07-29T07:14:03.664Z,21
2022-07-29T07:16:44.742Z,20
2022-07-29T07:17:56.660Z,20
2022-07-29T07:18:58.453Z,20
2022-07-29T07:20:00.319Z,20
2022-07-29T07:21:30.151Z,20
2022-07-29T07:22:35.697Z,20
2022-07-29T07:24:11.138Z,20
2022-07-29T07:27:20.339Z,22
2022-07-29T07:28:29.028Z,22
2022-07-29T07:29:33.755Z,21
2022-07-29T07:30:47.842Z,21
2022-07-29T07:31:49.964Z,20
2022-07-29T07:32:51.845Z,21
2022-07-29T07:33:54.249Z,22
2022-07-29T07:34:56.482Z,21
2022-07-29T07:35:59.797Z,19
2022-07-29T07:37:01.149Z,18
2022-07-29T07:38:02.940Z,16
2022-07-29T07:39:03.931Z,15
2022-07-29T07:40:05.929Z,15
2022-07-29T07:41:07.488Z,15
2022-07-29T07:42:10.168Z,15
2022-07-29T07:43:12.424Z,15
2022-07-29T07:44:16.171Z,15
2022-07-29T07:45:23.489Z,15
2022-07-29T07:46:35.950Z,14
2022-07-29T07:47:46.120Z,14
2022-07-29T07:49:03.045Z,14
2022-07-29T07:50:05.000Z,15
2022-07-29T07:51:07.641Z,15
2022-07-29T07:52:09.427Z,15
2022-07-29T07:53:11.261Z,14
2022-07-29T07:54:13.680Z,13
2022-07-29T07:55:17.801Z,12
2022-07-29T07:57:35.211Z,13
2022-07-29T07:58:36.204Z,13
2022-07-29T07:59:38.265Z,13
2022-07-29T08:00:39.808Z,14
2022-07-29T08:01:47.761Z,14
2022-07-29T08:02:59.727Z,14
2022-07-29T08:04:01.663Z,14
2022-07-29T08:05:03.254Z,14
2022-07-29T08:06:12.585Z,15
2022-07-29T08:07:14.103Z,14
2022-07-29T08:08:16.015Z,14
2022-07-29T08:09:28.532Z,13
2022-07-29T08:10:32.794Z,13
2022-07-29T08:11:37.635Z,14
2022-07-29T08:12:53.200Z,15
2022-07-29T08:13:55.261Z,16
2022-07-29T08:14:57.090Z,16
2022-07-29T08:15:58.962Z,16
2022-07-29T08:17:01.978Z,15
2022-07-29T08:18:08.566Z,14
2022-07-29T08:19:13.829Z,13
2022-07-29T08:20:16.175Z,12
2022-07-29T08:21:18.310Z,12
2022-07-29T08:22:19.362Z,12
2022-07-29T08:23:22.450Z,13
2022-07-29T08:24:26.937Z,14
2022-07-29T08:25:31.961Z,14
2022-07-29T08:26:41.938Z,14
2022-07-29T08:27:44.486Z,12
2022-07-29T08:28:47.093Z,12
2022-07-29T08:29:48.699Z,12
2022-07-29T08:30:49.688Z,12
2022-07-29T08:31:53.107Z,12
2022-07-29T08:32:57.705Z,12
2022-07-29T08:34:00.414Z,12
2022-07-29T08:35:03.861Z,12
2022-07-29T08:36:05.404Z,12
2022-07-29T08:37:06.399Z,13
2022-07-29T08:38:07.831Z,13
2022-07-29T08:39:10.748Z,14
2022-07-29T08:40:13.301Z,14
2022-07-29T08:41:14.856Z,13
2022-07-29T08:42:15.967Z,12
2022-07-29T08:43:17.293Z,13
2022-07-29T08:44:22.361Z,13
2022-07-29T08:45:32.224Z,13
2022-07-29T08:46:33.504Z,13
2022-07-29T08:47:34.556Z,13
2022-07-29T08:48:35.643Z,13
2022-07-29T08:49:37.898Z,13
2022-07-29T08:50:39.685Z,14
2022-07-29T08:51:49.668Z,13
2022-07-29T08:52:59.695Z,13
2022-07-29T08:54:01.573Z,14
2022-07-29T08:55:03.162Z,14
2022-07-29T08:56:04.160Z,14
2022-07-29T08:57:05.698Z,14
2022-07-29T08:58:06.711Z,13
2022-07-29T08:59:16.212Z,12
2022-07-29T09:00:22.948Z,13
2022-07-29T09:01:35.367Z,13
2022-07-29T09:02:47.494Z,14
2022-07-29T09:03:50.150Z,14
2022-07-29T09:04:51.674Z,15
2022-07-29T09:05:53.749Z,15
2022-07-29T09:06:56.109Z,14
2022-07-29T09:07:58.221Z,13
2022-07-29T09:09:00.675Z,13
2022-07-29T09:10:02.978Z,13
2022-07-29T09:11:05.280Z,13
2022-07-29T09:12:06.700Z,14
2022-07-29T09:13:08.100Z,15
2022-07-29T09:14:09.141Z,14
2022-07-29T09:15:10.647Z,15
2022-07-29T09:16:12.794Z,14
2022-07-29T09:17:54.792Z,15
2022-07-29T09:18:55.788Z,15
2022-07-29T09:19:57.741Z,15
2022-07-29T09:20:59.249Z,15
2022-07-29T09:22:00.561Z,15
2022-07-29T09:23:06.398Z,15
2022-07-29T09:24:08.471Z,14
2022-07-29T09:25:09.770Z,14
2022-07-29T09:26:10.780Z,14
2022-07-29T09:27:12.322Z,13
2022-07-29T09:28:14.115Z,13
2022-07-29T09:29:15.908Z,13
2022-07-29T09:30:25.491Z,14
2022-07-29T09:31:33.820Z,14
2022-07-29T09:32:36.196Z,14
2022-07-29T09:33:44.260Z,14
2022-07-29T09:34:46.882Z,14
2022-07-29T09:35:56.347Z,14
2022-07-29T09:37:04.206Z,14
2022-07-29T09:38:05.753Z,14
2022-07-29T09:39:07.262Z,14
2022-07-29T09:40:11.763Z,14
2022-07-29T09:41:13.993Z,14
2022-07-29T09:42:16.738Z,15
2022-07-29T09:43:20.288Z,15
2022-07-29T09:44:22.916Z,16
2022-07-29T09:45:24.713Z,16
2022-07-29T09:46:27.814Z,16
2022-07-29T09:47:29.476Z,16
2022-07-29T09:48:30.750Z,16
2022-07-29T09:49:32.305Z,15
2022-07-29T09:50:34.641Z,16
2022-07-29T09:51:37.969Z,15
2022-07-29T09:52:40.932Z,15
2022-07-29T09:53:42.222Z,15
2022-07-29T09:54:43.498Z,14
2022-07-29T09:55:46.300Z,14
2022-07-29T09:56:48.519Z,14
2022-07-29T09:57:50.303Z,14
2022-07-29T09:58:58.800Z,14
2022-07-29T10:00:00.110Z,14
2022-07-29T10:01:02.522Z,14
2022-07-29T10:02:05.264Z,14
2022-07-29T10:03:08.862Z,14
2022-07-29T10:04:14.934Z,14
2022-07-29T10:05:20.659Z,14
2022-07-29T10:06:22.497Z,14
2022-07-29T10:07:24.041Z,15
2022-07-29T10:08:25.583Z,15
2022-07-29T10:09:26.841Z,15
2022-07-29T10:10:28.195Z,15
2022-07-29T10:11:35.425Z,15
2022-07-29T10:12:51.094Z,15
2022-07-29T10:13:52.659Z,14
2022-07-29T10:14:53.646Z,14
2022-07-29T10:15:54.702Z,14
2022-07-29T10:16:55.993Z,14
2022-07-29T10:17:57.266Z,14
2022-07-29T10:18:59.055Z,14
2022-07-29T10:20:00.351Z,14
2022-07-29T10:21:03.598Z,14
2022-07-29T10:22:05.085Z,14
2022-07-29T10:23:07.702Z,14
2022-07-29T10:24:14.594Z,15
2022-07-29T10:25:16.158Z,15
2022-07-29T10:26:17.964Z,15
2022-07-29T10:27:21.902Z,15
2022-07-29T10:28:23.708Z,14
2022-07-29T10:29:26.341Z,14
2022-07-29T10:30:28.995Z,14
2022-07-29T10:31:31.868Z,15
2022-07-29T10:32:33.262Z,15
2022-07-29T10:33:35.319Z,16
2022-07-29T10:34:36.599Z,16
2022-07-29T10:35:38.500Z,15
2022-07-29T10:36:39.918Z,15
2022-07-29T10:37:48.012Z,14
2022-07-29T10:38:49.382Z,15
2022-07-29T10:39:50.656Z,15
2022-07-29T10:40:54.949Z,16
2022-07-29T10:42:01.882Z,17
2022-07-29T10:43:09.490Z,16
2022-07-29T10:44:22.958Z,17
2022-07-29T10:45:26.446Z,16
2022-07-29T10:46:33.450Z,16
2022-07-29T10:47:35.796Z,16
2022-07-29T10:48:37.379Z,15
2022-07-29T10:49:43.639Z,16
2022-07-29T10:50:49.453Z,16
2022-07-29T10:51:52.166Z,16
2022-07-29T10:52:54.422Z,16
2022-07-29T10:53:55.965Z,15
2022-07-29T10:54:59.681Z,14
2022-07-29T10:56:01.218Z,14
2022-07-29T10:57:18.414Z,15
2022-07-29T10:58:54.601Z,16
2022-07-29T10:59:59.348Z,16
2022-07-29T11:01:01.774Z,16
2022-07-29T12:08:06.611Z,17
2022-07-29T12:09:16.901Z,18
2022-07-29T12:10:29.723Z,18
2022-07-29T12:11:38.087Z,18
2022-07-29T12:12:45.406Z,18
2022-07-29T12:13:48.434Z,18
2022-07-29T12:16:00.406Z,22
2022-07-29T12:17:15.982Z,23
2022-07-29T12:18:18.205Z,22
2022-07-29T12:19:27.804Z,20
2022-07-29T12:20:34.290Z,18
2022-07-29T12:21:35.310Z,19
2022-07-29T12:23:03.651Z,38
2022-07-29T12:24:09.088Z,58
2022-07-29T12:25:32.150Z,66
2022-07-29T12:26:35.783Z,66
2022-07-29T12:27:45.314Z,48
2022-07-29T12:28:48.338Z,28
2022-07-29T12:29:49.999Z,20
2022-07-29T12:30:52.500Z,21
2022-07-29T12:31:54.901Z,22
2022-07-29T12:33:20.294Z,47
2022-07-29T12:34:22.131Z,48
2022-07-29T12:35:24.494Z,46
2022-07-29T12:36:25.533Z,45
2022-07-29T12:37:31.889Z,20
2022-07-29T12:38:43.787Z,26
2022-07-29T12:39:49.912Z,31
2022-07-29T12:40:51.251Z,36
2022-07-29T12:41:52.481Z,48
2022-07-29T12:43:15.500Z,42
2022-07-29T12:44:16.497Z,43
2022-07-29T12:45:18.867Z,46
2022-07-29T12:46:20.521Z,43
2022-07-29T12:47:22.238Z,50
2022-07-29T12:48:24.031Z,48
2022-07-29T12:49:25.144Z,41
2022-07-29T12:50:27.859Z,33
2022-07-29T12:51:29.433Z,23
2022-07-29T12:52:31.362Z,21
2022-07-29T12:53:32.930Z,20
2022-07-29T12:54:40.239Z,20
2022-07-29T12:55:47.416Z,21
2022-07-29T12:56:53.047Z,19
2022-07-29T12:57:54.353Z,18
2022-07-29T12:58:56.461Z,18
2022-07-29T12:59:58.359Z,18
2022-07-29T13:00:59.698Z,18
2022-07-29T13:02:01.589Z,18
2022-07-29T13:03:03.253Z,17
2022-07-29T13:04:12.227Z,17
2022-07-29T13:05:14.422Z,17
2022-07-29T13:06:17.216Z,17
2022-07-29T13:07:19.025Z,17
2022-07-29T13:09:00.776Z,16
2022-07-29T13:10:02.732Z,16
2022-07-29T13:11:04.783Z,16
2022-07-29T13:12:08.019Z,15
2022-07-29T13:13:09.537Z,16
2022-07-29T13:14:13.807Z,16
2022-07-29T13:15:15.317Z,17
2022-07-29T13:16:17.787Z,18
2022-07-29T13:17:20.695Z,19
2022-07-29T13:18:22.599Z,20
2022-07-29T13:19:25.449Z,20
2022-07-29T13:20:27.077Z,19
2022-07-29T13:21:28.065Z,18
2022-07-29T13:22:29.875Z,17
2022-07-29T13:23:31.278Z,17
2022-07-29T13:24:42.861Z,17
2022-07-29T13:26:07.359Z,17
2022-07-29T13:27:08.981Z,18
2022-07-29T13:28:11.446Z,19
2022-07-29T13:29:21.085Z,19
2022-07-29T13:30:32.658Z,18
2022-07-29T13:31:34.923Z,18
2022-07-29T13:32:37.247Z,18
2022-07-29T13:33:38.907Z,17
2022-07-29T13:34:39.915Z,18
2022-07-29T13:35:44.001Z,18
2022-07-29T13:36:45.546Z,18
2022-07-29T13:37:47.103Z,19
2022-07-29T13:38:52.752Z,18
2022-07-29T13:39:54.543Z,19
2022-07-29T13:40:57.402Z,18
2022-07-29T13:42:01.432Z,18
2022-07-29T13:43:06.949Z,18
2022-07-29T13:44:08.247Z,17
2022-07-29T13:45:09.793Z,18
2022-07-29T13:46:11.124Z,18
2022-07-29T13:47:13.939Z,18
2022-07-29T13:48:15.785Z,19
2022-07-29T13:49:17.694Z,19
2022-07-29T13:50:19.848Z,18
2022-07-29T13:51:21.911Z,18
2022-07-29T13:52:23.981Z,17
2022-07-29T13:53:26.714Z,16
2022-07-29T13:54:28.798Z,16
2022-07-29T13:55:30.362Z,18
2022-07-29T13:56:31.643Z,18
2022-07-29T13:57:32.683Z,19
2022-07-29T13:58:34.003Z,19
2022-07-29T13:59:35.340Z,18
2022-07-29T14:00:36.635Z,17
2022-07-29T14:01:38.475Z,17
2022-07-29T14:02:40.131Z,17
2022-07-29T14:03:41.792Z,18
2022-07-29T14:04:47.703Z,18
2022-07-29T14:05:50.340Z,19
2022-07-29T14:06:51.864Z,18
2022-07-29T14:07:53.579Z,18
2022-07-29T14:08:55.259Z,19
2022-07-29T14:09:57.742Z,19
2022-07-29T14:10:58.725Z,19
2022-07-29T14:12:02.996Z,19
2022-07-29T14:13:24.757Z,19
2022-07-29T14:14:32.727Z,19
2022-07-29T14:16:20.083Z,19
2022-07-29T14:17:22.237Z,19
2022-07-29T14:18:23.801Z,20
2022-07-29T14:19:25.067Z,20
2022-07-29T14:20:26.599Z,20
2022-07-29T14:21:28.388Z,20
2022-07-29T14:22:37.884Z,20
2022-07-29T14:23:47.561Z,21
2022-07-29T14:24:52.169Z,22
2022-07-29T14:25:54.027Z,22
2022-07-29T14:26:56.228Z,22
2022-07-29T14:27:58.574Z,21
2022-07-29T14:28:59.697Z,20
2022-07-29T14:30:01.567Z,21
2022-07-29T14:31:02.857Z,21
2022-07-29T14:32:10.398Z,21
2022-07-29T14:33:20.860Z,21
2022-07-29T14:34:22.130Z,21
2022-07-29T14:35:23.431Z,20
2022-07-29T14:36:25.275Z,20
2022-07-29T14:37:27.622Z,20
2022-07-29T14:38:42.391Z,21
2022-07-29T14:39:43.677Z,21
2022-07-29T14:40:45.528Z,20
2022-07-29T14:41:52.282Z,21
2022-07-29T14:42:54.106Z,20
2022-07-29T14:43:56.228Z,21
2022-07-29T14:44:57.855Z,21
2022-07-29T14:46:02.987Z,21
2022-07-29T14:47:10.750Z,23
2022-07-29T14:48:12.021Z,22
2022-07-29T14:49:13.400Z,22
2022-07-29T14:50:15.057Z,22
2022-07-29T14:51:32.682Z,21
2022-07-29T14:52:33.968Z,20
2022-07-29T14:53:35.021Z,21
2022-07-29T14:54:36.584Z,20
2022-07-29T14:55:37.572Z,20
2022-07-29T14:56:46.423Z,20
2022-07-29T14:57:49.415Z,20
2022-07-29T14:58:51.810Z,21
2022-07-29T14:59:56.463Z,21
2022-07-29T15:00:57.555Z,20
2022-07-29T15:01:59.390Z,20
2022-07-29T15:03:04.403Z,20
2022-07-29T15:04:11.891Z,20
2022-07-29T15:05:13.186Z,20
2022-07-29T15:06:14.702Z,21
2022-07-29T15:07:16.241Z,21
2022-07-29T15:08:18.587Z,21
2022-07-29T15:09:20.715Z,21
2022-07-29T15:10:22.000Z,21
2022-07-29T15:11:28.185Z,20
2022-07-29T15:12:29.753Z,20
2022-07-29T15:13:31.356Z,20
2022-07-29T15:14:32.620Z,20
2022-07-29T15:15:34.403Z,20
2022-07-29T15:16:36.857Z,20
2022-07-29T15:17:44.312Z,20
2022-07-29T15:18:46.113Z,20
2022-07-29T15:19:49.445Z,20
2022-07-29T15:20:50.462Z,19
2022-07-29T15:21:59.206Z,19
2022-07-29T15:23:03.879Z,19
2022-07-29T15:24:04.856Z,20
2022-07-29T15:25:06.198Z,21
2022-07-29T15:26:07.463Z,21
2022-07-29T15:27:08.719Z,21
2022-07-29T15:28:10.264Z,21
2022-07-29T15:29:13.622Z,21
2022-07-29T15:30:27.937Z,21
2022-07-29T15:31:36.447Z,21
2022-07-29T15:32:38.696Z,21
2022-07-29T15:33:39.978Z,21
2022-07-29T15:34:41.243Z,20
2022-07-29T15:35:42.573Z,21
2022-07-29T15:36:53.267Z,20
2022-07-29T15:37:55.519Z,20
2022-07-29T15:38:56.511Z,20
2022-07-29T15:40:00.059Z,20
2022-07-29T15:41:01.670Z,20
2022-07-29T15:42:02.921Z,20
2022-07-29T15:43:04.196Z,20
2022-07-29T15:44:05.526Z,21
2022-07-29T15:45:06.523Z,21
2022-07-29T15:46:07.607Z,21
2022-07-29T15:47:09.623Z,22
2022-07-29T15:48:11.868Z,21
2022-07-29T15:49:19.206Z,21
2022-07-29T15:50:27.552Z,21
2022-07-29T15:51:30.178Z,20
2022-07-29T15:52:32.792Z,20
2022-07-29T15:53:35.194Z,20
2022-07-29T15:54:36.679Z,21
2022-07-29T15:55:37.966Z,20
2022-07-29T15:56:40.073Z,21
2022-07-29T15:57:48.909Z,21
2022-07-29T15:58:52.061Z,21
2022-07-29T15:59:54.412Z,21
2022-07-29T16:00:56.229Z,21
2022-07-29T16:02:02.342Z,21
2022-07-29T16:03:05.873Z,20
2022-07-29T16:04:07.807Z,19
2022-07-29T16:05:15.333Z,19
2022-07-29T16:06:17.486Z,19
2022-07-29T16:07:18.731Z,19
2022-07-29T16:08:20.778Z,20
2022-07-29T16:09:23.058Z,20
2022-07-29T16:10:26.072Z,20
2022-07-29T16:11:33.212Z,19
2022-07-29T16:12:46.401Z,20
2022-07-29T16:13:54.160Z,19
2022-07-29T16:15:09.262Z,19
2022-07-29T16:16:15.674Z,19
2022-07-29T16:17:21.345Z,19
2022-07-29T16:18:29.984Z,20
2022-07-29T16:19:53.514Z,20
2022-07-29T16:20:55.656Z,19
2022-07-29T16:22:14.676Z,19
2022-07-29T16:23:27.495Z,19
2022-07-29T16:24:30.877Z,19
2022-07-29T16:25:58.409Z,19
2022-07-29T16:27:03.588Z,19
2022-07-29T16:28:05.461Z,20
2022-07-29T16:29:10.540Z,20
2022-07-29T16:30:13.445Z,20
2022-07-29T16:31:15.512Z,20
2022-07-29T16:32:22.398Z,20
2022-07-29T16:33:23.622Z,21
2022-07-29T16:34:24.896Z,21
2022-07-29T16:35:39.028Z,21
2022-07-29T16:36:44.740Z,22
2022-07-29T16:37:49.514Z,21
2022-07-29T16:38:50.811Z,21
2022-07-29T16:39:53.440Z,21
2022-07-29T16:40:55.541Z,21
2022-07-29T16:42:00.415Z,21
2022-07-29T16:43:48.884Z,21
2022-07-29T16:44:51.040Z,20
2022-07-29T16:45:52.934Z,21
2022-07-29T16:48:13.108Z,21
2022-07-29T16:49:39.086Z,21
2022-07-29T16:50:40.096Z,21
2022-07-29T16:51:45.031Z,21
2022-07-29T16:52:47.409Z,21
2022-07-29T16:53:50.296Z,21
2022-07-29T16:54:51.825Z,22
2022-07-29T16:55:53.369Z,22
2022-07-29T16:56:56.673Z,22
2022-07-29T16:58:01.733Z,21
2022-07-29T16:59:03.173Z,22
2022-07-29T17:00:05.289Z,22
2022-07-29T17:01:06.913Z,21
2022-07-29T17:02:09.536Z,22
2022-07-29T17:03:11.182Z,21
2022-07-29T17:04:15.128Z,22
2022-07-29T17:05:16.739Z,22
2022-07-29T17:06:19.372Z,22
2022-07-29T17:07:21.439Z,22
2022-07-29T17:08:23.394Z,22
2022-07-29T17:09:25.388Z,23
2022-07-29T17:10:27.774Z,24
2022-07-29T17:11:52.173Z,24
2022-07-29T17:12:56.286Z,25
2022-07-29T17:14:01.884Z,25
2022-07-29T17:15:09.142Z,24
2022-07-29T17:16:11.294Z,24
2022-07-29T17:17:20.764Z,24
2022-07-29T17:18:58.194Z,24
2022-07-29T17:19:59.759Z,24
2022-07-29T17:21:01.316Z,23
2022-07-29T17:22:10.394Z,23
2022-07-29T17:23:20.546Z,23
2022-07-29T17:24:22.888Z,22